Darrington, Washington
Current Conditions -  °F | °C
As of 12:35 AM on Saturday 20 Dec 2014 (Local Time) from KAWO Reporting Station
Overcast Overcast  
Wind Chill: 41°   Ceiling: 6000
Heat Index: 46°   Visibility: 10mi
Dew Point: 37°   Wind: 13mph
Humidity: 71%   Direction: 140°SE
Pressure: 29.86"   Gusts: NA
Location:  48.26°N, 121.6°W
Report Text: KAWO 200835Z AUTO 14011KT 10SM SCT050 BKN060 OVC090 08/03 A2986 RMK AO1
Loading
Personal Weather Stations






























Interactive Weather Map New forecast layout! Learn more

10-Day Weather Forecast

Advertisements
Track Severe Weather on mobile